• Join FlightAware (Why Join?)
  • Login
  • US Flag 
01:50PM EDT


 

Airport Tracker/Info


-or-


 

Live Flight TrackerFlight Track Log ✈ UAL623 ✈ 13-May-2013 ✈ KMCO - KCLE

Flight Track Log - Related Links

Times and Time Zones

All times are in EDT time to prevent confusion due to time zone crossing. See the UAL623 flight status page for this flight to view local times or setup timezone preferences in your user account.

Time Position Orientation Groundspeed Altitude Reporting Facility
EDT Latitude Longitude Course Direction KTS MPH feet Rate Location/Type
02:12PM 28.4500 -81.3167 360° North 154 177 800  Level Orlando TRACON
02:13PM 28.4833 -81.3167 360° North 157 181 3,000 2,040 Climbing Orlando TRACON
02:14PM 28.5333 -81.3000 16° North 231 266 4,500 2,040 Climbing Orlando TRACON
02:15PM 28.6167 -81.3000 360° North 285 328 7,300 2,640 Climbing Orlando TRACON
02:17PM 28.7397 -81.3583 337° Northwest 274 315 12,700 2,340 Climbing Jacksonville Center
02:18PM 28.8236 -81.3972 338° Northwest 293 337 14,400 1,860 Climbing Jacksonville Center
02:19PM 28.9200 -81.4289 344° North 329 379 16,500 2,220 Climbing Jacksonville Center
02:20PM 29.0186 -81.4631 343° North 357 411 18,900 2,100 Climbing Jacksonville Center
02:21PM 29.1253 -81.4997 343° North 378 435 20,800 1,920 Climbing Jacksonville Center
02:22PM 29.2261 -81.5433 339° North 390 449 22,800 2,040 Climbing Jacksonville Center
02:23PM 29.3350 -81.5800 344° North 395 455 24,900 1,800 Climbing Jacksonville Center
02:24PM 29.4417 -81.6167 343° North 395 455 26,500 1,440 Climbing Jacksonville Center
02:25PM 29.5486 -81.6558 342° North 395 455 27,800 1,380 Climbing Jacksonville Center
02:26PM 29.6639 -81.6975 343° North 409 471 29,300 1,440 Climbing Jacksonville Center
02:27PM 29.7747 -81.7344 344° North 414 476 30,700 1,560 Climbing Jacksonville Center
02:28PM 29.8836 -81.7764 342° North 414 476 32,500 1,800 Climbing Jacksonville Center
02:29PM 29.9925 -81.8108 345° North 414 476 34,300 1,860 Climbing Jacksonville Center
02:30PM 30.1158 -81.8217 356° North 398 458 36,300 1,260 Climbing Jacksonville Center
02:31PM 30.2244 -81.8325 355° North 385 443 36,900 300 Climbing Jacksonville Center
02:32PM 30.3353 -81.8433 355° North 395 455 36,900  Level Jacksonville Center
02:33PM 30.4503 -81.8517 356° North 406 467 36,900  Level Jacksonville Center
02:34PM 30.5736 -81.8694 353° North 420 483 37,000  Climbing Jacksonville Center
02:35PM 30.6864 -81.8806 355° North 425 489 36,900 -60 Descending Jacksonville Center
02:36PM 30.8014 -81.8914 355° North 420 483 36,900  Level Jacksonville Center
02:37PM 30.9142 -81.9022 355° North 420 483 37,000  Climbing Jacksonville Center
02:38PM 31.0311 -81.9156 354° North 420 483 37,000  Level Jacksonville Center
02:39PM 31.1481 -81.9239 357° North 420 483 37,000  Level Jacksonville Center
02:40PM 31.2631 -81.9325 356° North 420 483 37,000  Level Jacksonville Center
02:41PM 31.3653 -81.9411 356° North 420 483 37,000  Level Jacksonville Center
02:42PM 31.4950 -81.9522 356° North 426 490 37,000  Level Jacksonville Center
02:43PM 31.6097 -81.9631 355° North 426 490 37,000  Level Jacksonville Center
02:44PM 31.7206 -81.9742 355° North 426 490 37,000  Level Jacksonville Center
02:45PM 31.8500 -81.9875 355° North 426 490 37,000  Level Jacksonville Center
02:47PM 32.1033 -82.0086 356° North 419 482 37,000  Level Atlanta Center
02:48PM 32.2183 -82.0208 355° North 419 482 37,000  Level Atlanta Center
02:49PM 32.3292 -82.0306 356° North 405 466 37,000  Level Atlanta Center
02:50PM 32.4442 -82.0403 356° North 405 466 37,000  Level Atlanta Center
02:51PM 32.5550 -82.0525 355° North 405 466 37,100  Climbing Atlanta Center
02:52PM 32.6658 -82.0625 356° North 405 466 37,000 480 Descending Atlanta Center
02:53PM 32.7786 -82.0747 355° North 405 466 38,100 840 Climbing Atlanta Center
02:54PM 32.8833 -82.0847 355° North 393 452 38,700 420 Climbing Atlanta Center
02:55PM 32.9919 -82.0922 357° North 387 445 39,000 120 Climbing Atlanta Center
02:56PM 33.0986 -82.1047 354° North 387 445 39,000  Level Atlanta Center
02:57PM 33.2053 -82.1147 356° North 387 445 39,000  Level Atlanta Center
02:58PM 33.3264 -82.1269 355° North 387 445 39,000  Level Atlanta Center
02:59PM 33.4331 -82.1344 357° North 387 445 39,000  Level Atlanta Center
03:00PM 33.5417 -82.1447 355° North 387 445 39,000  Level Atlanta Center
03:01PM 33.6503 -82.1547 356° North 387 445 39,000  Level Atlanta Center
03:02PM 33.7589 -82.1597 358° North 387 445 39,000  Level Atlanta Center
03:03PM 33.8717 -82.1625 359° North 387 445 39,000  Level Atlanta Center
03:04PM 33.9825 -82.1650 359° North 387 445 39,000  Level Atlanta Center
03:05PM 34.0950 -82.1650 360° North 392 451 39,000  Level Atlanta Center
03:06PM 34.1953 -82.1653 360° North 400 460 39,000  Level Atlanta Center
03:07PM 34.3100 -82.1653 360° North 400 460 39,000  Level Atlanta Center
03:08PM 34.4250 -82.1653 360° North 400 460 39,000  Level Atlanta Center
03:09PM 34.5375 -82.1653 360° North 405 466 39,000  Level Atlanta Center
03:10PM 34.6525 -82.1703 358° North 405 466 39,000 -60 Level Atlanta Center
03:11PM 34.7650 -82.1703 360° North 405 466 38,900  Descending Atlanta Center
03:12PM 34.8819 -82.1700 360° North 405 466 39,000  Climbing Atlanta Center
03:13PM 34.9989 -82.1750 358° North 405 466 39,000  Level Atlanta Center
03:14PM 35.1178 -82.1775 359° North 413 475 39,000  Level Atlanta Center
03:15PM 35.2369 -82.1775 360° North 427 491 39,000  Level Atlanta Center
03:16PM 35.3536 -82.1747 North 422 486 39,000  Level Atlanta Center
03:17PM 35.4831 -82.1769 359° North 422 486 39,000 -60 Level Atlanta Center
03:18PM 35.6019 -82.1794 359° North 422 486 38,900  Descending Atlanta Center
03:19PM 35.7167 -82.1792 360° North 422 486 39,000  Climbing Atlanta Center
03:20PM 35.8314 -82.1792 360° North 422 486 39,000  Level Atlanta Center
03:21PM 35.9483 -82.1792 360° North 415 478 39,000  Level Atlanta Center
03:22PM 36.0631 -82.1792 360° North 415 478 39,000  Level Atlanta Center
03:23PM 36.1819 -82.1789 360° North 416 479 39,000  Level Atlanta Center
03:24PM 36.2800 -82.1792 360° North 408 470 39,000  Level Atlanta Center
03:27PM 36.5714 -82.1800 360° North 418 481 39,000  Level Indianapolis Center
03:28PM 36.6878 -82.1814 359° North 420 483 39,000  Level Indianapolis Center
03:29PM 36.8042 -82.1817 360° North 419 482 39,000  Level Indianapolis Center
03:30PM 36.9394 -82.1831 360° North 418 481 39,000  Level Indianapolis Center
03:31PM 37.0533 -82.1847 359° North 412 474 39,000 -360 Level Indianapolis Center
03:32PM 37.1664 -82.1858 360° North 408 470 38,300 -660 Descending Indianapolis Center
03:33PM 37.2794 -82.1872 359° North 407 468 37,700 -660 Descending Indianapolis Center
03:34PM 37.3883 -82.1872 360° North 394 453 37,000 -360 Descending Indianapolis Center
03:35PM 37.5144 -82.1886 359° North 387 445 37,000  Level Indianapolis Center
03:36PM 37.6244 -82.1883 360° North 393 452 37,000  Level Indianapolis Center
03:37PM 37.7350 -82.1903 359° North 398 458 37,000  Level Indianapolis Center
03:38PM 37.8422 -82.1903 360° North 390 449 37,000  Level Indianapolis Center
03:40PM 37.9773 -82.1833 North  Level FlightAware Approximate
03:40PM 38.0764 -82.1919 North 389 448 37,000  Level Indianapolis Center
03:41PM 38.1864 -82.1925 360° North 391 450 36,500 -540 Descending Indianapolis Center
03:42PM 38.2914 -82.1931 360° North 381 438 35,900 -660 Descending Indianapolis Center
03:43PM 38.3944 -82.1922 360° North 371 427 35,200 -540 Descending Indianapolis Center
03:44PM 38.4992 -82.1878 North 373 429 34,900 -300 Descending Indianapolis Center
03:46PM 38.6039 -82.1844 North 373 429 34,700 -360 Descending Indianapolis Center
03:47PM 38.7056 -82.1817 North 366 421 34,200 -420 Descending Indianapolis Center
03:48PM 38.8081 -82.1794 North 365 420 33,900 -120 Descending Indianapolis Center
03:49PM 38.9111 -82.1756 North 367 422 34,000  Climbing Indianapolis Center
03:50PM 39.0347 -82.1739 North 367 422 34,000  Level Indianapolis Center
03:51PM 39.1378 -82.1697 North 368 423 34,000  Level Indianapolis Center
03:52PM 39.2408 -82.1661 North 369 425 34,000 -300 Level Indianapolis Center
03:53PM 39.3411 -82.1625 North 361 415 33,400 -780 Descending Indianapolis Center
03:54PM 39.4417 -82.1592 North 360 414 32,400 -1,080 Descending Indianapolis Center
03:55PM 39.5375 -82.1564 North 353 406 31,200 -2,160 Descending Indianapolis Center
03:56PM 39.6525 -82.1517 North 351 404 28,000 -2,940 Descending Indianapolis Center
03:57PM 39.7469 -82.1506 North 341 392 25,200 -2,280 Descending Indianapolis Center
03:58PM 39.8392 -82.1464 North 331 381 23,400 -1,380 Descending Indianapolis Center
03:59PM 39.9272 -82.1442 North 319 367 22,400 -1,020 Descending Indianapolis Center
04:00PM 40.0194 -82.1406 North 324 373 21,400 -1,020 Descending Indianapolis Center
04:01PM 40.1089 -82.1372 North 321 369 20,300 -1,020 Descending Indianapolis Center
04:02PM 40.2014 -82.1356 North 327 376 19,300 -1,020 Descending Indianapolis Center
04:03PM 40.2942 -82.1331 North 321 369 18,300 -960 Descending Indianapolis Center
04:04PM 40.3875 -82.1300 North 332 382 17,400 -960 Descending Indianapolis Center
04:05PM 40.4800 -82.1064 11° North 332 382 16,400 -1,080 Descending Cleveland Center
04:06PM 40.5542 -82.0314 38° Northeast 322 371 15,300 -1,140 Descending Cleveland Center
04:07PM 40.6322 -81.9539 37° Northeast 340 391 14,200 -1,140 Descending Cleveland Center
04:08PM 40.6847 -81.9056 35° Northeast 346 398 13,500 -1,140 Descending Cleveland Center
04:08PM 40.7061 -81.8786 44° Northeast 345 397 13,100 -1,140 Descending Cleveland Center
04:09PM 40.7903 -81.7981 36° Northeast 346 398 12,000 -1,140 Descending Cleveland Center
04:10PM 40.8744 -81.7144 37° Northeast 346 398 10,800 -1,080 Descending Cleveland Center
04:11PM 40.9439 -81.6442 37° Northeast 346 398 9,900 -480 Descending Cleveland Center
04:12PM 41.0333 -81.6622 351° North 299 344 9,900 -600 Level Cleveland Center
04:14PM 41.1975 -81.7172 346° North 256 295 8,200 -1,080 Descending Cleveland Center
04:15PM 41.2664 -81.7158 North 266 306 6,700 -1,680 Descending Cleveland Center
04:16PM 41.3311 -81.6975 12° North 266 306 5,100 -1,380 Descending Cleveland Center
04:17PM 41.4022 -81.6794 11° North 261 300 4,000 -780 Descending Cleveland Center
04:18PM 41.4772 -81.6944 351° North 205 236 3,400 -660 Descending Cleveland Center
04:19PM 41.4681 -81.7664 260° West 174 200 2,500 -840 Descending Cleveland Center
04:20PM 41.4406 -81.8075 228° Southwest 128 147 1,700 -840 Descending Cleveland Center